Bluffton, IN

12:17 PM EST ye 16 January, 2017 (GMT -0500)
Rigby Timbers | | Change Station

Elev 856 ft 40.78 °N, 85.17 °W | Updated 12 minutes ago

Nebuleto
Nebuleto
35.0 °F
Feels Like 31 °F
N
5.0
Vento Variema Vento from ESE

Hodie
High -- | Low -- °F
--% Chance of Precip.
Yesterday
High -- | Low -- °F
Precip. -- in
Presuro 30.25 in
Videbleso 0.8 milii
Clouds Nubizita 400 ft
Ventokoldeso 31 °F
Rosifopunto 34 °F
Humideso 98%
Rainfall 0.00 in
Snow Depth Not available.
8:02 AM 5:39 PM
Waning Gibbous, 80% visible
SPECI KFWA 161702Z 07008KT 3/4SM BR OVC004 02/00 A3025 RMK AO2 T00170000
Presuro 30.25 in
Videbleso 0.8 milii
Clouds Nubizita 400 ft
Ventokoldeso 31 °F
Rosifopunto 34 °F
Humideso 98%
Rainfall 0.00 in
Snow Depth Not available.
8:02 AM 5:39 PM
Waning Gibbous, 80% visible
SPECI KFWA 161702Z 07008KT 3/4SM BR OVC004 02/00 A3025 RMK AO2 T00170000

Get Your Daily Forecast Email!

Thanks for signing up!

Be on the lookout for a verification email in your inbox.

You'll start receiving the daily forecast at 8 AM.

×

10-Day Weather Forecast

Almanac

Astronomy

Jan. 16, 2017 Rise Set
Actual Time
Civil Twilight
Nautical Twilight
Astronomical Twilight
Moon
Length Of Visible Light
Length of Day
Tomorrow will be .
, % of the Moon is Illuminated

Today's Extremes

State Highs State Lows

Community

WunderPhotos

Upload Photos

1,962,540 photos uploaded!

WunderBlog® & News

Nearby

Air Quality

  Air Quality AQ Index Pollutant
Not available.

Snow Depth

Station Depth Elevation

Earthquake Activity

City Distance Mag. Time & Date
Minimum magnitude displayed is 2.5.

Coastal Water Temperatures

Loko Temperaturo

Stations

Nearby Weather Stations

Station Location Temp Ventokoldeso Rosifopunto Humideso Vento Precip. Elev Aktualigita Type
                   

Watches & Warnings

There are currently no watches in effect.